METAR Data
IDs: Format: Raw Decoded Include TAF

Data at: 1452 UTC 10 Aug 2022

KDVO 101435Z AUTO 02005KT 3/4SM BR OVC002 14/14 A3006 RMK AO2
KDVO 101415Z AUTO 02005KT 2SM BR FEW002 13/13 A3006 RMK AO2
KDVO 101355Z AUTO 00000KT M1/4SM FG VV000 12/12 A3005 RMK AO2
KDVO 101335Z AUTO 00000KT 1/4SM FG VV002 12/11 A3005 RMK AO2 VIS M1/4V5
KDVO 101315Z AUTO 00000KT 10SM CLR 13/13 A3004 RMK AO2
KDVO 101255Z AUTO 00000KT 3SM BR CLR 12/11 A3003 RMK AO2
KDVO 101235Z AUTO 00000KT 10SM CLR 13/13 A3003 RMK AO2
KDVO 101215Z AUTO 00000KT 5SM BR CLR 13/13 A3003 RMK AO2
KDVO 101155Z AUTO 00000KT 10SM CLR 14/14 A3002 RMK AO2
KDVO 101135Z AUTO 00000KT 10SM CLR 14/14 A3002 RMK AO2
KDVO 101115Z AUTO 00000KT 10SM CLR 14/14 A3002 RMK AO2
KDVO 101055Z AUTO 00000KT 10SM CLR 14/14 A3002 RMK AO2
KDVO 101035Z AUTO 06003KT 10SM CLR 14/13 A3002 RMK AO2
KDVO 101015Z AUTO 00000KT 10SM CLR 14/13 A3002 RMK AO2
KDVO 100955Z AUTO 00000KT 10SM CLR 14/13 A3002 RMK AO2
KDVO 100935Z AUTO 00000KT 10SM CLR 15/13 A3003 RMK AO2
KDVO 100915Z AUTO 00000KT 10SM CLR 15/14 A3002 RMK AO2
KDVO 100855Z AUTO 05005KT 10SM CLR 16/14 A3002 RMK AO2
KDVO 100835Z AUTO 08004KT 10SM CLR 16/14 A3002 RMK AO2
KDVO 100815Z AUTO 00000KT 10SM CLR 16/13 A3002 RMK AO2
KDVO 100755Z AUTO 00000KT 10SM CLR 16/13 A3003 RMK AO2
KDVO 100735Z AUTO 10003KT 10SM SCT040 16/14 A3002 RMK AO2
KDVO 100715Z AUTO VRB04KT 10SM SCT040 16/14 A3002 RMK AO2
KDVO 100655Z AUTO VRB04KT 10SM CLR 17/14 A3002 RMK AO2
KDVO 100635Z AUTO 20005KT 10SM CLR 18/13 A3002 RMK AO2
KDVO 100615Z AUTO 21006KT 10SM CLR 17/14 A3001 RMK AO2
KDVO 100555Z AUTO 21007KT 10SM CLR 18/14 A3001 RMK AO2
KDVO 100535Z AUTO 20008KT 10SM CLR 18/13 A3001 RMK AO2
KDVO 100515Z AUTO 20008KT 10SM CLR 18/14 A3001 RMK AO2
KDVO 100455Z AUTO 20006KT 10SM CLR 18/14 A3000 RMK AO2
KDVO 100435Z AUTO 21004KT 10SM CLR 18/14 A2999 RMK AO2
KDVO 100415Z AUTO 00000KT 10SM CLR 18/13 A2999 RMK AO2
KDVO 100355Z AUTO 31006KT 10SM CLR 18/13 A2998 RMK AO2
KDVO 100335Z AUTO 00000KT 10SM CLR 19/13 A2999 RMK AO2
KDVO 100315Z AUTO VRB03KT 10SM CLR 19/13 A2998 RMK AO2
KDVO 100255Z AUTO 25007KT 10SM CLR 20/13 A2998 RMK AO2
KDVO 100235Z AUTO VRB06G12KT 10SM CLR 20/13 A2997 RMK AO2
KDVO 100215Z AUTO VRB05G11KT 10SM CLR 21/13 A2997 RMK AO2
KDVO 100155Z AUTO 23009G17KT 10SM CLR 22/13 A2997 RMK AO2
KDVO 100135Z AUTO VRB06G14KT 10SM CLR 22/13 A2997 RMK AO2
KDVO 100115Z AUTO VRB05KT 10SM CLR 23/13 A2997 RMK AO2
KDVO 100055Z AUTO 23011G17KT 170V270 10SM CLR 23/12 A2997 RMK AO2
KDVO 100035Z AUTO 32008G18KT 290V360 10SM CLR 24/12 A2996 RMK AO2
KDVO 100015Z AUTO 23011G17KT 200V260 10SM CLR 24/12 A2996 RMK AO2
KDVO 092355Z AUTO 25010G22KT 10SM CLR 24/12 A2996 RMK AO2
KDVO 092335Z AUTO 24014G23KT 10SM CLR 25/12 A2996 RMK AO2
KDVO 092315Z AUTO 27014G19KT 10SM CLR 25/12 A2996 RMK AO2
KDVO 092255Z AUTO 23016KT 10SM CLR 26/12 A2996 RMK AO2
KDVO 092235Z AUTO 23016KT 10SM CLR 26/12 A2996 RMK AO2
KDVO 092215Z AUTO 24013G21KT 200V260 10SM CLR 27/12 A2996 RMK AO2
KDVO 092155Z AUTO 22014G20KT 10SM CLR 27/12 A2996 RMK AO2
KDVO 092135Z AUTO 22017G22KT 10SM CLR 26/12 A2996 RMK AO2
KDVO 092115Z AUTO 23015G20KT 10SM CLR 27/12 A2997 RMK AO2
KDVO 092055Z AUTO 22012G19KT 10SM CLR 27/12 A2997 RMK AO2
KDVO 092035Z AUTO 25011G18KT 210V270 10SM CLR 26/12 A2997 RMK AO2
KDVO 092015Z AUTO 25011G18KT 200V300 10SM CLR 26/12 A2997 RMK AO2
KDVO 091955Z AUTO 25009G16KT 10SM CLR 25/11 A2998 RMK AO2
KDVO 091935Z AUTO 24013G18KT 10SM CLR 26/11 A2998 RMK AO2
KDVO 091915Z AUTO 26013KT 10SM CLR 26/11 A2999 RMK AO2
KDVO 091855Z AUTO 25012KT 10SM CLR 26/12 A2998 RMK AO2
KDVO 091835Z AUTO 26008G14KT 220V290 10SM CLR 25/12 A2999 RMK AO2
KDVO 091815Z AUTO 26008G14KT 230V330 10SM CLR 25/12 A2999 RMK AO2
KDVO 091755Z AUTO 24012KT 10SM CLR 25/13 A2998 RMK AO2
KDVO 091735Z AUTO VRB05G10KT 10SM CLR 25/13 A2998 RMK AO2
KDVO 091715Z AUTO VRB05KT 10SM CLR 24/13 A2998 RMK AO2
KDVO 091655Z AUTO 31008KT 10SM CLR 23/13 A2998 RMK AO2
KDVO 091635Z AUTO 32008KT 290V360 10SM CLR 22/13 A2998 RMK AO2
KDVO 091615Z AUTO VRB03KT 10SM CLR 21/13 A2999 RMK AO2
KDVO 091555Z AUTO 20006KT 10SM CLR 20/13 A2999 RMK AO2
KDVO 091535Z AUTO 00000KT 10SM CLR 20/13 A2998 RMK AO2
KDVO 091515Z AUTO 00000KT 10SM CLR 19/14 A2999 RMK AO2
KDVO 091455Z AUTO VRB04KT 10SM CLR 19/14 A2999 RMK AO2
KDVO 091435Z AUTO 33004G11KT 10SM CLR 18/14 A2998 RMK AO2
KDVO 091415Z AUTO 00000KT 10SM CLR 17/14 A2998 RMK AO2
KDVO 091355Z AUTO VRB04KT 10SM CLR 16/14 A2998 RMK AO2
KDVO 091335Z AUTO 33004KT 10SM CLR 16/13 A2997 RMK AO2
KDVO 091315Z AUTO 31005G10KT 10SM CLR 16/14 A2997 RMK AO2
KDVO 091255Z AUTO 00000KT 10SM CLR 15/13 A2996 RMK AO2
KDVO 091235Z AUTO 10004KT 10SM CLR 16/13 A2996 RMK AO2
KDVO 091215Z AUTO 12005KT 10SM CLR 16/14 A2995 RMK AO2
KDVO 091155Z AUTO 08004KT 10SM CLR 15/13 A2995 RMK AO2
KDVO 091135Z AUTO 12004KT 10SM CLR 15/13 A2995 RMK AO2
KDVO 091115Z AUTO 08004KT 10SM CLR 15/13 A2995 RMK AO2
KDVO 091055Z AUTO 09004KT 10SM CLR 15/13 A2995 RMK AO2
KDVO 091035Z AUTO 00000KT 10SM CLR 14/13 A2995 RMK AO2
KDVO 091015Z AUTO VRB03KT 10SM CLR 16/14 A2995 RMK AO2
KDVO 090955Z AUTO 11005KT 10SM CLR 15/13 A2996 RMK AO2
KDVO 090935Z AUTO 08003KT 10SM CLR 16/13 A2995 RMK AO2
KDVO 090915Z AUTO 10007KT 10SM CLR 16/13 A2995 RMK AO2
KDVO 090855Z AUTO 07004KT 10SM CLR 15/13 A2995 RMK AO2
KDVO 090835Z AUTO 00000KT 10SM CLR 17/14 A2996 RMK AO2
KDVO 090815Z AUTO 00000KT 10SM CLR 16/14 A2996 RMK AO2
KDVO 090755Z AUTO 00000KT 10SM CLR 16/13 A2997 RMK AO2
KDVO 090735Z AUTO 00000KT 10SM CLR 17/14 A2996 RMK AO2
KDVO 090715Z AUTO 09003KT 10SM CLR 17/13 A2996 RMK AO2
KDVO 090655Z AUTO 09005KT 10SM CLR 17/13 A2996 RMK AO2
KDVO 090635Z AUTO VRB04KT 10SM CLR 17/13 A2995 RMK AO2
KDVO 090615Z AUTO 00000KT 10SM CLR 18/13 A2995 RMK AO2
KDVO 090555Z AUTO 13006KT 10SM CLR 18/13 A2996 RMK AO2
KDVO 090535Z AUTO 11005KT 10SM CLR 18/13 A2996 RMK AO2
KDVO 090515Z AUTO 13005G10KT 10SM CLR 18/13 A2996 RMK AO2
KDVO 090455Z AUTO VRB04KT 10SM CLR 17/13 A2996 RMK AO2
KDVO 090435Z AUTO VRB03KT 10SM CLR 18/13 A2996 RMK AO2
KDVO 090415Z AUTO 00000KT 10SM CLR 18/13 A2995 RMK AO2
KDVO 090355Z AUTO 36007KT 10SM CLR 18/13 A2995 RMK AO2
KDVO 090335Z AUTO 36007KT 10SM CLR 18/13 A2996 RMK AO2
KDVO 090315Z AUTO VRB04G10KT 10SM CLR 19/13 A2996 RMK AO2
KDVO 090255Z AUTO 00000KT 10SM CLR 20/13 A2995 RMK AO2